Time;durP1;ratioP1;P1;durP2;ratioP2;P2;SDS_P1;SDS_P2;PMS_P1;PMS_P2;Temp;Humidity;BMP_temperature;BMP_pressure;BME280_temperature;BME280_humidity;BME280_pressure;Samples;Min_cycle;Max_cycle;Signal;HPM_P1;HPM_P2
2021/06/27 04:32:48;;;;;;;16.60;11.80;;;16.00;99.90;;;;;;5089449;23;20489;-78
2021/06/27 04:35:14;;;;;;;16.70;12.97;;;16.00;99.90;;;;;;4973960;28;20439;-80
2021/06/27 04:37:39;;;;;;;16.10;12.97;;;16.10;99.90;;;;;;4994676;28;20295;-79
2021/06/27 04:40:05;;;;;;;13.77;12.40;;;16.00;99.90;;;;;;4991536;28;20183;-78
2021/06/27 04:42:31;;;;;;;15.90;12.70;;;16.10;99.90;;;;;;4994015;28;20269;-77
2021/06/27 04:44:57;;;;;;;12.53;11.37;;;16.20;99.90;;;;;;4993880;28;20510;-79
2021/06/27 04:47:22;;;;;;;16.10;14.40;;;16.30;99.90;;;;;;4992497;28;20551;-78
2021/06/27 04:49:47;;;;;;;14.10;12.30;;;16.30;99.90;;;;;;4993710;28;20241;-79
2021/06/27 04:52:16;;;;;;;13.10;11.40;;;16.40;99.90;;;;;;4994349;28;20229;-80
2021/06/27 04:54:41;;;;;;;12.93;10.93;;;16.50;99.90;;;;;;4995632;28;20183;-79
2021/06/27 04:57:07;;;;;;;14.67;11.17;;;16.50;99.90;;;;;;4994209;28;20434;-81
2021/06/27 04:59:33;;;;;;;14.07;9.30;;;16.60;99.90;;;;;;4994909;28;20254;-79
2021/06/27 05:01:58;;;;;;;12.53;11.20;;;16.60;99.90;;;;;;4993963;28;20683;-79
2021/06/27 05:04:24;;;;;;;12.60;10.33;;;16.70;99.90;;;;;;4994002;28;20270;-79
2021/06/27 05:06:49;;;;;;;10.80;9.70;;;16.80;99.90;;;;;;4994226;28;20266;-81
2021/06/27 05:09:15;;;;;;;13.90;11.70;;;16.80;99.90;;;;;;4994137;28;20422;-79
2021/06/27 05:11:40;;;;;;;12.93;10.37;;;16.90;99.90;;;;;;4994365;28;20250;-79
2021/06/27 05:14:06;;;;;;;12.43;10.80;;;17.00;99.90;;;;;;4993440;28;20187;-80
2021/06/27 05:16:32;;;;;;;12.53;10.93;;;17.00;99.90;;;;;;4994318;28;20537;-79
2021/06/27 05:18:58;;;;;;;13.50;11.30;;;17.20;99.90;;;;;;4993107;28;20189;-79
2021/06/27 05:21:23;;;;;;;11.77;10.63;;;17.30;99.90;;;;;;4994184;28;20572;-79
2021/06/27 05:23:49;;;;;;;13.07;11.43;;;17.60;99.90;;;;;;4979728;28;20593;-79
2021/06/27 05:26:14;;;;;;;12.73;11.40;;;17.90;99.90;;;;;;4998888;28;20218;-79
2021/06/27 05:28:40;;;;;;;12.03;10.90;;;18.50;99.90;;;;;;4997111;28;20227;-78
2021/06/27 05:31:05;;;;;;;11.70;10.50;;;19.30;99.90;;;;;;4994896;28;20203;-78
2021/06/27 05:33:31;;;;;;;10.40;9.30;;;20.00;99.90;;;;;;4994924;28;20238;-78
2021/06/27 05:35:57;;;;;;;12.10;9.80;;;20.60;99.90;;;;;;4995100;28;20175;-78
2021/06/27 05:38:22;;;;;;;11.33;10.13;;;21.30;99.90;;;;;;4976795;28;20186;-78
2021/06/27 05:40:48;;;;;;;10.33;9.33;;;21.50;99.90;;;;;;4994605;28;20246;-80
2021/06/27 05:43:13;;;;;;;10.23;9.00;;;21.80;99.90;;;;;;4994389;28;20183;-77
2021/06/27 05:45:39;;;;;;;10.00;9.00;;;21.80;99.90;;;;;;4995858;28;20175;-79
2021/06/27 05:48:05;;;;;;;10.53;9.47;;;21.60;99.90;;;;;;4997809;28;20218;-79
2021/06/27 05:50:30;;;;;;;11.80;9.37;;;21.60;99.90;;;;;;4993989;28;20637;-79
2021/06/27 05:52:56;;;;;;;10.13;9.10;;;21.70;99.90;;;;;;4994513;28;20454;-78
2021/06/27 05:55:21;;;;;;;12.73;9.20;;;21.80;99.90;;;;;;4994601;28;20211;-78
2021/06/27 05:57:47;;;;;;;9.67;8.70;;;22.00;99.90;;;;;;4994899;28;20190;-78
2021/06/27 06:00:13;;;;;;;12.70;8.27;;;22.10;99.90;;;;;;4994245;28;20202;-76
2021/06/27 06:02:38;;;;;;;9.13;8.20;;;22.10;99.90;;;;;;4994158;28;20191;-71
2021/06/27 06:05:04;;;;;;;9.07;8.27;;;21.90;99.90;;;;;;4993718;28;20510;-72
2021/06/27 06:07:30;;;;;;;8.93;8.10;;;21.80;99.90;;;;;;4993870;28;20570;-71
2021/06/27 06:09:55;;;;;;;8.27;7.47;;;21.70;99.90;;;;;;4993564;28;20422;-71
2021/06/27 06:12:21;;;;;;;9.13;8.03;;;21.70;99.90;;;;;;4992894;28;20225;-71
2021/06/27 06:14:46;;;;;;;13.27;7.60;;;21.60;99.90;;;;;;4993314;28;20183;-72
2021/06/27 06:17:12;;;;;;;8.47;7.67;;;21.80;99.90;;;;;;4993865;28;20194;-72
2021/06/27 06:19:38;;;;;;;9.57;8.67;;;21.90;99.90;;;;;;4994826;28;20176;-69
2021/06/27 06:22:04;;;;;;;10.80;9.60;;;22.10;99.90;;;;;;4994372;28;20702;-72
2021/06/27 06:24:29;;;;;;;11.90;9.63;;;22.30;99.90;;;;;;4998098;28;20435;-82
2021/06/27 06:26:55;;;;;;;10.90;9.10;;;22.50;99.90;;;;;;5002540;28;20191;-81
2021/06/27 06:29:20;;;;;;;11.07;9.90;;;22.50;99.90;;;;;;5002568;28;20207;-82
2021/06/27 06:31:46;;;;;;;11.03;9.80;;;22.60;99.90;;;;;;4999280;28;20225;-82
2021/06/27 06:34:12;;;;;;;11.10;9.43;;;22.90;99.90;;;;;;4976171;28;20207;-82
2021/06/27 06:36:37;;;;;;;8.80;7.63;;;23.00;99.90;;;;;;4998817;28;20183;-82
2021/06/27 06:39:04;;;;;;;9.00;8.20;;;23.40;99.90;;;;;;4998810;28;20233;-81
2021/06/27 06:41:30;;;;;;;9.60;8.53;;;23.90;99.90;;;;;;4998999;28;20283;-83
2021/06/27 06:43:56;;;;;;;10.90;8.50;;;24.30;99.90;;;;;;4982148;28;20470;-81
2021/06/27 06:46:21;;;;;;;8.60;7.70;;;24.50;99.90;;;;;;4999527;28;20183;-81
2021/06/27 06:48:47;;;;;;;8.40;7.70;;;24.40;99.90;;;;;;4998334;28;20183;-82
2021/06/27 06:51:12;;;;;;;9.73;8.37;;;24.60;99.90;;;;;;4999338;28;20211;-82
2021/06/27 06:53:38;;;;;;;8.57;7.60;;;24.80;99.90;;;;;;4999920;28;20176;-82
2021/06/27 06:56:04;;;;;;;11.00;7.83;;;24.80;99.90;;;;;;4998236;28;20561;-81
2021/06/27 06:58:29;;;;;;;7.70;6.77;;;24.90;99.90;;;;;;4999871;28;20179;-82
2021/06/27 07:01:01;;;;;;;8.87;7.97;;;24.80;99.90;;;;;;5001051;28;20195;-82
2021/06/27 07:03:27;;;;;;;8.93;6.93;;;24.70;99.90;;;;;;5000899;28;20171;-81
2021/06/27 07:05:53;;;;;;;7.10;6.50;;;24.60;99.90;;;;;;5000861;28;20421;-81
2021/06/27 07:08:19;;;;;;;11.67;7.00;;;24.50;99.90;;;;;;4999193;28;20274;-82
2021/06/27 07:10:44;;;;;;;7.97;7.17;;;24.60;99.90;;;;;;5000184;28;20458;-80
2021/06/27 07:13:10;;;;;;;7.60;6.80;;;24.50;99.90;;;;;;5005488;28;20171;-81
2021/06/27 07:15:36;;;;;;;7.20;6.57;;;24.60;99.90;;;;;;5000579;28;20237;-82
2021/06/27 07:18:01;;;;;;;7.60;6.83;;;24.60;99.90;;;;;;5003284;28;20180;-82
2021/06/27 07:20:27;;;;;;;7.50;6.27;;;25.00;99.90;;;;;;5006482;28;20183;-81
2021/06/27 07:22:52;;;;;;;6.50;6.00;;;25.50;99.90;;;;;;5000200;28;20207;-79
2021/06/27 07:25:18;;;;;;;5.97;5.47;;;26.00;99.90;;;;;;4984193;28;20187;-81
2021/06/27 07:27:44;;;;;;;6.70;5.43;;;26.20;99.90;;;;;;4988101;28;20194;-81
2021/06/27 07:30:10;;;;;;;5.80;5.40;;;26.60;99.90;;;;;;4994135;28;20539;-82
2021/06/27 07:32:36;;;;;;;6.80;5.00;;;26.60;99.90;;;;;;4977643;28;20462;-78
2021/06/27 07:35:02;;;;;;;5.37;4.87;;;26.70;99.90;;;;;;4996540;28;20453;-82
2021/06/27 07:37:27;;;;;;;6.03;5.55;;;26.80;99.90;;;;;;4977696;28;20798;-81
2021/06/27 07:39:53;;;;;;;6.20;5.60;;;26.80;99.90;;;;;;5004467;28;20425;-80
2021/06/27 07:42:18;;;;;;;4.77;4.10;;;26.20;99.90;;;;;;5004919;28;20282;-80
2021/06/27 07:44:44;;;;;;;8.50;4.50;;;25.90;99.90;;;;;;4997506;28;20187;-81
2021/06/27 07:47:10;;;;;;;8.00;5.10;;;26.00;99.90;;;;;;4998795;28;20179;-82
2021/06/27 07:49:35;;;;;;;5.03;4.73;;;26.40;99.90;;;;;;5002590;28;20250;-81
2021/06/27 07:52:01;;;;;;;5.70;5.20;;;26.60;99.90;;;;;;4997726;28;20238;-78
2021/06/27 07:54:26;;;;;;;5.57;5.07;;;27.00;99.90;;;;;;4996467;28;20183;-80
2021/06/27 07:56:52;;;;;;;6.37;5.00;;;27.50;99.90;;;;;;4997650;28;20222;-79
2021/06/27 07:59:17;;;;;;;5.97;5.40;;;27.90;99.90;;;;;;4999088;28;20218;-78
2021/06/27 08:01:43;;;;;;;5.27;4.87;;;28.00;99.90;;;;;;5003885;28;20234;-82
2021/06/27 08:04:09;;;;;;;5.57;5.17;;;28.20;99.90;;;;;;5001287;28;20235;-79
2021/06/27 08:06:35;;;;;;;5.23;4.73;;;28.20;99.90;;;;;;4995289;28;20190;-76
2021/06/27 08:09:00;;;;;;;5.27;4.77;;;28.40;99.90;;;;;;4992373;28;20191;-78
2021/06/27 08:11:26;;;;;;;5.43;5.03;;;28.60;99.90;;;;;;4976135;28;20474;-80
2021/06/27 08:13:52;;;;;;;7.87;5.60;;;28.80;99.90;;;;;;4995197;28;20259;-80
2021/06/27 08:16:18;;;;;;;5.30;4.80;;;29.10;99.90;;;;;;4992985;28;20871;-80
2021/06/27 08:18:43;;;;;;;5.03;4.70;;;29.20;99.90;;;;;;4994538;28;20180;-78
2021/06/27 08:21:09;;;;;;;4.50;4.20;;;29.20;99.90;;;;;;4992057;28;20231;-80
2021/06/27 08:23:34;;;;;;;4.53;4.07;;;29.20;99.90;;;;;;4969382;28;20254;-80
2021/06/27 08:26:00;;;;;;;7.17;4.50;;;29.50;99.90;;;;;;4995440;28;20179;-78
2021/06/27 08:28:26;;;;;;;5.80;4.80;;;29.80;99.90;;;;;;4977607;28;20190;-80
2021/06/27 08:30:53;;;;;;;4.70;4.40;;;30.10;99.90;;;;;;4994445;28;20218;-78
2021/06/27 08:33:19;;;;;;;4.27;3.90;;;30.10;99.90;;;;;;4995218;28;20175;-80
2021/06/27 08:35:44;;;;;;;5.10;4.80;;;29.90;99.90;;;;;;4995875;28;20434;-82
2021/06/27 08:38:11;;;;;;;4.87;4.50;;;30.20;99.90;;;;;;4996575;28;20183;-79
2021/06/27 08:40:37;;;;;;;4.40;4.20;;;30.60;99.90;;;;;;4995702;28;20202;-79
2021/06/27 08:43:10;;;;;;;6.00;5.40;;;30.90;99.90;;;;;;4999174;28;20414;-81
2021/06/27 08:45:52;;;;;;;3.90;3.70;;;31.00;99.90;;;;;;4994442;28;20187;-81
2021/06/27 08:48:20;;;;;;;4.80;4.60;;;31.10;99.90;;;;;;4995197;28;20426;-81
2021/06/27 08:50:47;;;;;;;4.50;4.20;;;31.30;99.90;;;;;;4995353;28;20469;-81
2021/06/27 08:53:13;;;;;;;4.03;3.67;;;31.20;99.90;;;;;;4992795;28;20427;-80
2021/06/27 08:55:38;;;;;;;3.90;3.67;;;30.80;99.90;;;;;;4996244;28;20923;-81
2021/06/27 08:58:07;;;;;;;4.27;4.07;;;30.40;99.90;;;;;;4996986;28;20259;-81
2021/06/27 09:00:32;;;;;;;4.90;4.60;;;30.60;99.90;;;;;;5000181;28;20258;-77
2021/06/27 09:02:58;;;;;;;4.30;4.10;;;30.70;99.90;;;;;;4999945;28;20450;-81
2021/06/27 09:05:24;;;;;;;4.40;3.90;;;30.80;99.90;;;;;;5003260;28;20191;-80
2021/06/27 09:07:50;;;;;;;5.47;3.70;;;31.30;99.90;;;;;;4985387;28;20193;-81
2021/06/27 09:10:15;;;;;;;4.20;4.00;;;31.80;99.90;;;;;;4983043;28;20525;-80
2021/06/27 09:12:54;;;;;;;4.47;4.27;;;31.80;99.90;;;;;;4996397;28;20199;-80
2021/06/27 09:15:56;;;;;;;4.63;4.23;;;31.70;99.90;;;;;;4996494;28;20187;-79
2021/06/27 09:18:24;;;;;;;4.73;4.53;;;32.10;99.90;;;;;;4955647;28;20432;-81
2021/06/27 09:20:55;;;;;;;3.70;3.50;;;31.70;99.90;;;;;;4996378;28;20791;-79
2021/06/27 09:23:47;;;;;;;3.40;3.20;;;31.40;99.90;;;;;;4995703;28;20485;-77
2021/06/27 09:26:31;;;;;;;4.03;3.83;;;31.60;99.90;;;;;;4984671;28;20756;-80
2021/06/27 09:28:58;;;;;;;4.23;3.50;;;32.10;99.90;;;;;;4978564;28;20519;-80
2021/06/27 09:31:42;;;;;;;4.30;4.00;;;32.00;99.90;;;;;;4978226;28;20541;-81
2021/06/27 09:34:10;;;;;;;3.90;3.70;;;31.80;99.90;;;;;;4996356;28;20469;-81
2021/06/27 09:36:43;;;;;;;3.77;3.47;;;31.40;99.90;;;;;;4989490;28;20410;-77
2021/06/27 09:39:13;;;;;;;3.97;3.67;;;31.30;99.90;;;;;;4991526;28;20919;-81
2021/06/27 09:41:57;;;;;;;4.00;3.80;;;31.90;99.90;;;;;;4991499;28;20442;-81
2021/06/27 09:44:22;;;;;;;4.47;4.17;;;32.70;99.90;;;;;;4990430;28;20485;-79
2021/06/27 09:46:52;;;;;;;4.80;4.50;;;33.30;99.90;;;;;;4991916;28;20414;-79
2021/06/27 09:49:27;;;;;;;4.53;4.00;;;33.50;99.90;;;;;;4993654;28;20175;-80
2021/06/27 09:51:53;;;;;;;3.80;3.60;;;33.00;99.90;;;;;;4989716;28;20531;-78
2021/06/27 09:54:22;;;;;;;4.03;3.63;;;33.20;99.90;;;;;;4990847;28;20426;-80
2021/06/27 09:56:48;;;;;;;3.93;3.70;;;32.80;99.90;;;;;;4987844;28;20410;-80
2021/06/27 09:59:17;;;;;;;3.53;3.33;;;32.60;99.90;;;;;;4989582;28;20521;-79
2021/06/27 10:01:43;;;;;;;4.80;3.27;;;33.20;99.90;;;;;;4991441;28;20690;-80
2021/06/27 10:04:12;;;;;;;2.77;2.50;;;33.90;99.90;;;;;;4991203;28;20455;-79
2021/06/27 10:06:54;;;;;;;3.13;2.93;;;34.30;99.90;;;;;;4993458;28;20468;-80
2021/06/27 10:09:22;;;;;;;2.30;2.17;;;34.70;99.90;;;;;;4994121;28;20431;-80
2021/06/27 10:12:06;;;;;;;4.03;2.70;;;34.80;99.30;;;;;;4994393;28;20469;-80
2021/06/27 10:14:58;;;;;;;3.23;3.07;;;34.30;99.90;;;;;;4996414;28;20453;-79
2021/06/27 10:17:27;;;;;;;2.50;2.30;;;33.80;99.20;;;;;;4995013;28;20426;-80
2021/06/27 10:19:54;;;;;;;2.63;2.53;;;33.90;99.90;;;;;;4994192;28;20949;-80
2021/06/27 10:22:23;;;;;;;3.13;2.90;;;33.90;98.50;;;;;;4995852;28;21002;-79
2021/06/27 10:24:49;;;;;;;2.83;2.63;;;33.70;98.60;;;;;;4996570;28;20498;-80
2021/06/27 10:27:15;;;;;;;2.90;2.70;;;33.70;99.90;;;;;;4979808;28;20513;-79
2021/06/27 10:29:46;;;;;;;2.30;2.10;;;33.30;99.90;;;;;;4995050;28;20202;-80
2021/06/27 10:32:12;;;;;;;2.60;2.50;;;33.00;98.70;;;;;;4994249;28;20211;-78
2021/06/27 10:34:38;;;;;;;2.00;1.90;;;33.10;99.10;;;;;;4994922;28;20481;-80
2021/06/27 10:37:21;;;;;;;2.37;2.27;;;32.60;98.20;;;;;;4985068;28;20175;-79
2021/06/27 10:40:14;;;;;;;4.90;4.40;;;31.60;99.60;;;;;;4984910;28;20411;-80
2021/06/27 10:42:49;;;;;;;5.40;3.23;;;31.40;99.90;;;;;;4980340;28;20439;-79
2021/06/27 10:45:24;;;;;;;3.00;2.90;;;31.50;99.90;;;;;;4967874;28;20450;-77
2021/06/27 10:47:50;;;;;;;2.77;2.67;;;31.90;99.90;;;;;;4989324;28;20565;-79
2021/06/27 10:50:17;;;;;;;2.93;2.73;;;32.00;98.70;;;;;;4986506;28;20514;-78
2021/06/27 10:52:54;;;;;;;3.80;2.80;;;32.20;99.90;;;;;;4977590;28;20815;-77
2021/06/27 10:55:23;;;;;;;3.63;2.47;;;32.00;98.80;;;;;;4995426;28;20518;-79
2021/06/27 10:57:57;;;;;;;2.40;2.20;;;31.90;98.30;;;;;;4993869;28;20425;-77
2021/06/27 11:00:24;;;;;;;3.83;2.13;;;32.10;98.30;;;;;;4994464;28;20959;-78
2021/06/27 11:02:49;;;;;;;2.33;2.00;;;32.60;98.60;;;;;;4977797;28;20510;-79
2021/06/27 11:05:28;;;;;;;4.60;4.30;;;32.90;97.80;;;;;;4977154;28;20510;-80
2021/06/27 11:07:54;;;;;;;17.83;16.30;;;33.20;98.00;;;;;;4994470;28;20175;-80
2021/06/27 11:10:20;;;;;;;7.77;7.17;;;33.00;96.50;;;;;;4994985;28;20415;-76
2021/06/27 11:12:58;;;;;;;5.77;5.27;;;32.70;98.10;;;;;;4986925;28;20842;-79
2021/06/27 11:15:24;;;;;;;18.40;16.60;;;32.90;97.30;;;;;;4995091;28;20738;-79
2021/06/27 11:17:57;;;;;;;3.43;3.23;;;32.80;99.40;;;;;;4995100;28;20410;-76
2021/06/27 11:20:25;;;;;;;18.00;14.20;;;33.10;99.30;;;;;;4993536;28;20435;-79
2021/06/27 11:22:53;;;;;;;3.83;3.53;;;33.00;96.90;;;;;;4991268;28;20443;-77
2021/06/27 11:25:36;;;;;;;9.50;8.60;;;33.20;98.00;;;;;;4994056;28;20445;-78
2021/06/27 11:28:17;;;;;;;8.43;7.53;;;33.30;96.10;;;;;;4994234;28;21006;-78
2021/06/27 11:30:47;;;;;;;8.10;7.43;;;33.20;96.70;;;;;;4993322;28;20541;-80
2021/06/27 11:33:24;;;;;;;3.33;3.23;;;33.00;97.90;;;;;;4992491;28;20445;-78
2021/06/27 11:35:54;;;;;;;12.17;11.07;;;32.90;97.50;;;;;;4993407;28;20418;-77
2021/06/27 11:38:35;;;;;;;3.47;3.27;;;33.00;96.80;;;;;;4975287;28;20426;-76
2021/06/27 11:41:03;;;;;;;10.43;9.37;;;32.40;96.40;;;;;;4993109;28;20803;-80
2021/06/27 11:43:56;;;;;;;2.97;2.87;;;32.40;97.60;;;;;;4992891;28;20942;-76
2021/06/27 11:46:27;;;;;;;5.93;5.43;;;32.10;97.30;;;;;;4975369;28;20501;-79
2021/06/27 11:48:53;;;;;;;19.70;17.80;;;32.00;97.70;;;;;;4979012;28;20979;-79
2021/06/27 11:51:19;;;;;;;3.47;3.27;;;32.10;98.00;;;;;;4982261;28;20465;-79
2021/06/27 11:53:45;;;;;;;8.23;7.43;;;32.10;97.00;;;;;;4997339;28;20203;-79
2021/06/27 11:56:16;;;;;;;3.07;2.97;;;31.90;97.50;;;;;;4994600;28;20433;-76
2021/06/27 11:58:42;;;;;;;4.50;4.20;;;31.90;97.60;;;;;;4994485;28;20179;-79
2021/06/27 12:01:09;;;;;;;18.77;16.60;;;32.00;99.00;;;;;;4976781;28;20474;-78
2021/06/27 12:03:46;;;;;;;2.97;2.77;;;31.90;96.80;;;;;;4975812;28;20187;-78
2021/06/27 12:06:12;;;;;;;3.20;2.90;;;31.60;97.80;;;;;;4991154;28;20429;-77
2021/06/27 12:08:43;;;;;;;5.07;4.77;;;31.50;97.10;;;;;;4991655;28;20517;-76
2021/06/27 12:11:08;;;;;;;3.10;2.90;;;31.10;97.10;;;;;;4974632;28;20470;-76
2021/06/27 12:13:35;;;;;;;3.73;2.87;;;30.60;97.20;;;;;;4973704;28;20416;-77
2021/06/27 12:16:01;;;;;;;2.87;2.67;;;30.50;98.30;;;;;;4988055;28;20171;-75
2021/06/27 12:18:28;;;;;;;2.70;2.53;;;30.60;98.20;;;;;;4991383;28;20698;-76
2021/06/27 12:21:05;;;;;;;9.40;3.90;;;30.40;96.90;;;;;;4991297;28;20175;-76
2021/06/27 12:23:40;;;;;;;3.00;2.90;;;30.20;97.90;;;;;;4972904;28;20453;-77
2021/06/27 12:26:18;;;;;;;2.63;2.53;;;30.20;98.40;;;;;;4991658;28;20962;-77
2021/06/27 12:28:50;;;;;;;2.53;2.43;;;30.20;98.30;;;;;;4974588;28;20415;-78
2021/06/27 12:31:22;;;;;;;2.40;2.30;;;30.10;98.40;;;;;;4991297;28;20474;-76
2021/06/27 12:33:57;;;;;;;2.80;2.70;;;29.80;98.90;;;;;;4991087;28;20402;-77
2021/06/27 12:36:34;;;;;;;2.20;2.10;;;29.70;98.30;;;;;;4985419;28;20470;-78
2021/06/27 12:39:04;;;;;;;2.17;1.93;;;29.90;98.70;;;;;;4954915;28;20438;-78
2021/06/27 12:41:35;;;;;;;2.70;2.30;;;30.00;98.50;;;;;;4991550;28;20458;-78
2021/06/27 12:44:07;;;;;;;3.00;2.30;;;30.20;98.60;;;;;;4990379;28;20434;-79
2021/06/27 12:46:41;;;;;;;2.10;2.00;;;30.10;97.50;;;;;;4992069;28;20928;-78
2021/06/27 12:49:11;;;;;;;2.53;2.40;;;30.10;99.10;;;;;;4992125;28;20472;-79
2021/06/27 12:51:41;;;;;;;2.40;2.30;;;30.20;98.40;;;;;;4991689;28;20473;-77
2021/06/27 12:54:21;;;;;;;2.20;2.10;;;30.30;97.60;;;;;;4974083;28;20430;-78
2021/06/27 12:56:50;;;;;;;2.70;2.50;;;30.30;97.40;;;;;;4975193;28;20854;-79
2021/06/27 12:59:18;;;;;;;2.23;2.03;;;30.20;98.00;;;;;;4971276;28;20430;-76
2021/06/27 13:02:09;;;;;;;2.37;2.27;;;30.30;98.10;;;;;;4972299;28;20779;-75
2021/06/27 13:04:40;;;;;;;2.10;2.00;;;30.30;97.40;;;;;;4982518;28;20430;-77
2021/06/27 13:07:08;;;;;;;2.13;1.90;;;30.40;98.30;;;;;;4991878;28;20438;-76
2021/06/27 13:09:35;;;;;;;2.53;2.43;;;30.30;96.30;;;;;;4991596;28;20944;-76
2021/06/27 13:12:09;;;;;;;2.43;2.20;;;30.10;96.20;;;;;;4990953;28;20477;-76
2021/06/27 13:14:37;;;;;;;1.70;1.60;;;29.90;96.00;;;;;;4987231;28;20536;-76
2021/06/27 13:17:04;;;;;;;2.30;2.20;;;29.80;95.60;;;;;;4983093;28;20459;-77
2021/06/27 13:19:29;;;;;;;2.03;1.93;;;29.70;96.90;;;;;;4990568;28;20791;-76
2021/06/27 13:22:12;;;;;;;2.40;2.30;;;29.80;98.00;;;;;;4991009;28;20537;-76
2021/06/27 13:24:56;;;;;;;5.17;2.70;;;29.70;99.50;;;;;;4973907;28;20207;-77
2021/06/27 13:27:22;;;;;;;2.67;2.57;;;29.80;99.70;;;;;;4973657;28;20438;-76
2021/06/27 13:30:01;;;;;;;2.20;2.10;;;30.00;98.80;;;;;;4989479;28;20435;-76
2021/06/27 13:32:26;;;;;;;3.10;2.80;;;30.00;99.90;;;;;;4991073;28;20234;-75
2021/06/27 13:34:53;;;;;;;3.23;2.20;;;30.20;98.50;;;;;;4990750;28;20943;-76
2021/06/27 13:37:19;;;;;;;2.63;2.00;;;30.00;98.80;;;;;;4991701;28;20626;-76
2021/06/27 13:39:46;;;;;;;2.57;2.37;;;29.90;98.40;;;;;;4989579;28;20514;-75
2021/06/27 13:42:12;;;;;;;2.23;2.13;;;29.70;98.90;;;;;;4990744;28;20199;-76
2021/06/27 13:44:55;;;;;;;2.40;2.30;;;29.70;98.90;;;;;;4994114;28;20457;-76
2021/06/27 13:47:21;;;;;;;2.40;2.30;;;29.60;98.00;;;;;;4980191;28;20970;-76
2021/06/27 13:49:47;;;;;;;2.47;2.37;;;29.70;99.00;;;;;;4996602;28;20446;-76
2021/06/27 13:52:13;;;;;;;2.57;2.47;;;29.70;98.40;;;;;;4995346;28;20699;-76
2021/06/27 13:54:38;;;;;;;2.10;2.00;;;29.50;98.40;;;;;;4994478;28;20443;-75
2021/06/27 13:57:04;;;;;;;2.10;1.80;;;29.30;98.00;;;;;;4995402;28;20226;-76
2021/06/27 13:59:29;;;;;;;2.27;2.17;;;29.30;99.00;;;;;;4996185;28;20187;-76
2021/06/27 14:01:55;;;;;;;2.40;2.30;;;29.20;98.60;;;;;;4994541;28;20556;-76
2021/06/27 14:04:20;;;;;;;2.03;1.93;;;29.20;98.60;;;;;;4994114;28;20218;-76
2021/06/27 14:06:46;;;;;;;2.20;2.10;;;29.30;98.30;;;;;;4994105;28;20179;-76
2021/06/27 14:09:11;;;;;;;3.60;2.50;;;29.40;98.10;;;;;;4994478;28;20184;-76
2021/06/27 14:11:37;;;;;;;4.03;2.33;;;29.40;98.90;;;;;;4994092;28;20207;-76
2021/06/27 14:14:03;;;;;;;2.20;2.10;;;29.30;98.70;;;;;;4987737;28;20615;-76
2021/06/27 14:16:29;;;;;;;2.03;1.80;;;29.40;98.30;;;;;;4982925;28;20187;-76
2021/06/27 14:18:55;;;;;;;3.47;2.70;;;29.40;98.40;;;;;;4989395;28;20959;-77
2021/06/27 14:21:21;;;;;;;2.20;2.10;;;29.50;98.00;;;;;;4987089;28;20457;-75
2021/06/27 14:23:46;;;;;;;4.07;2.37;;;29.40;98.20;;;;;;4987687;28;20184;-76
2021/06/27 14:26:13;;;;;;;2.30;2.10;;;29.50;98.70;;;;;;4995039;28;20180;-76
2021/06/27 14:28:40;;;;;;;2.03;1.93;;;29.60;99.00;;;;;;4987650;28;20665;-77
2021/06/27 14:31:06;;;;;;;2.00;1.90;;;29.60;99.00;;;;;;4979572;28;20471;-75
2021/06/27 14:33:31;;;;;;;2.20;2.00;;;29.80;98.50;;;;;;4974277;28;20438;-74
2021/06/27 14:35:57;;;;;;;1.77;1.67;;;29.70;97.80;;;;;;4973490;28;20412;-76
2021/06/27 14:38:24;;;;;;;3.57;2.23;;;29.70;97.40;;;;;;4977541;28;20180;-76
2021/06/27 14:40:50;;;;;;;2.10;2.00;;;29.40;97.40;;;;;;4992929;28;20270;-76
2021/06/27 14:43:16;;;;;;;1.80;1.70;;;29.30;97.40;;;;;;4993455;28;20979;-76
2021/06/27 14:45:42;;;;;;;4.20;1.77;;;29.20;97.10;;;;;;4993574;28;20172;-74
2021/06/27 14:48:10;;;;;;;2.43;2.23;;;29.20;96.50;;;;;;4992686;28;20235;-76
2021/06/27 14:50:37;;;;;;;1.73;1.63;;;29.20;96.90;;;;;;4992798;28;20453;-76
2021/06/27 14:53:03;;;;;;;2.50;1.70;;;29.10;96.90;;;;;;4975883;28;20422;-77
2021/06/27 14:55:31;;;;;;;4.67;4.37;;;29.10;97.50;;;;;;4993350;28;20501;-76
2021/06/27 14:57:57;;;;;;;9.00;8.10;;;29.30;97.50;;;;;;4993305;28;20979;-76
2021/06/27 15:00:23;;;;;;;4.87;4.40;;;29.30;97.10;;;;;;4993744;28;20924;-76
2021/06/27 15:02:49;;;;;;;4.20;2.60;;;29.20;97.70;;;;;;4975552;28;20501;-76
2021/06/27 15:05:14;;;;;;;5.20;4.80;;;29.10;97.60;;;;;;4992649;28;20180;-76
2021/06/27 15:07:40;;;;;;;5.63;5.13;;;29.00;97.90;;;;;;4992876;28;20187;-76
2021/06/27 15:10:06;;;;;;;5.67;5.37;;;29.00;97.60;;;;;;4993060;28;20179;-76
2021/06/27 15:12:32;;;;;;;27.03;24.53;;;28.90;97.80;;;;;;4992881;28;20199;-76
2021/06/27 15:14:57;;;;;;;3.90;3.70;;;28.90;97.60;;;;;;4992734;28;20410;-76
2021/06/27 15:17:23;;;;;;;3.53;3.33;;;28.90;97.50;;;;;;4993184;28;20252;-77
2021/06/27 15:19:48;;;;;;;2.40;2.30;;;28.80;97.90;;;;;;4993179;28;20230;-75
2021/06/27 15:22:14;;;;;;;3.40;3.20;;;28.80;97.30;;;;;;4992907;28;20195;-76
2021/06/27 15:24:39;;;;;;;2.23;2.13;;;28.70;98.30;;;;;;4992926;28;20258;-76
2021/06/27 15:27:06;;;;;;;2.50;2.30;;;28.70;97.80;;;;;;4976538;28;20183;-77
2021/06/27 15:29:31;;;;;;;2.47;2.03;;;28.70;97.80;;;;;;4977059;28;20254;-76
2021/06/27 15:31:59;;;;;;;6.57;2.83;;;28.60;99.10;;;;;;4992705;28;21080;-75
2021/06/27 15:34:26;;;;;;;7.23;6.20;;;28.60;97.50;;;;;;4992818;28;20614;-75
2021/06/27 15:36:52;;;;;;;2.70;2.60;;;28.60;97.80;;;;;;4992721;28;20418;-76
2021/06/27 15:39:17;;;;;;;2.70;2.50;;;28.60;98.10;;;;;;4992566;28;20417;-75
2021/06/27 15:41:43;;;;;;;2.33;2.13;;;28.60;98.10;;;;;;4992544;28;20807;-76
2021/06/27 15:44:09;;;;;;;4.20;2.97;;;28.60;98.20;;;;;;4992617;28;20175;-75
2021/06/27 15:46:37;;;;;;;3.17;2.97;;;28.50;98.20;;;;;;4991950;28;20190;-76
2021/06/27 15:49:05;;;;;;;6.13;2.40;;;28.40;98.20;;;;;;4992667;28;20175;-77
2021/06/27 15:51:31;;;;;;;2.70;2.60;;;28.30;98.20;;;;;;4992407;28;20509;-76
2021/06/27 15:53:57;;;;;;;2.80;2.60;;;28.30;98.40;;;;;;4992509;28;20414;-76
2021/06/27 15:56:24;;;;;;;2.30;2.20;;;28.20;99.00;;;;;;4992690;28;20171;-76
2021/06/27 15:58:50;;;;;;;3.60;3.30;;;28.20;99.00;;;;;;4992427;28;20414;-76
2021/06/27 16:01:16;;;;;;;15.10;13.43;;;28.10;99.70;;;;;;4991837;28;20951;-76
2021/06/27 16:03:41;;;;;;;10.00;8.57;;;28.10;99.70;;;;;;4991584;28;20214;-75
2021/06/27 16:06:07;;;;;;;3.97;3.67;;;28.00;99.90;;;;;;4974894;28;20175;-76
2021/06/27 16:08:33;;;;;;;4.67;4.27;;;28.00;99.90;;;;;;4991506;28;20549;-75
2021/06/27 16:10:59;;;;;;;7.40;6.80;;;27.80;99.90;;;;;;4991776;28;20203;-75
2021/06/27 16:13:25;;;;;;;5.97;5.50;;;27.60;99.90;;;;;;4991625;28;20941;-76
2021/06/27 16:15:51;;;;;;;13.20;10.67;;;27.50;99.90;;;;;;4974356;28;20533;-76
2021/06/27 16:18:16;;;;;;;15.60;11.53;;;27.30;99.90;;;;;;4974460;28;20262;-76
2021/06/27 16:20:44;;;;;;;7.83;6.83;;;27.00;99.90;;;;;;4992088;28;20663;-75
2021/06/27 16:23:11;;;;;;;4.87;4.47;;;26.70;99.90;;;;;;4991543;28;20722;-76
2021/06/27 16:25:37;;;;;;;4.73;4.33;;;26.40;99.90;;;;;;4991824;28;20438;-76
2021/06/27 16:28:05;;;;;;;6.60;6.00;;;26.20;99.90;;;;;;4990792;28;20414;-76
2021/06/27 16:30:31;;;;;;;6.03;4.23;;;25.90;99.90;;;;;;4991857;28;20418;-76
2021/06/27 16:32:56;;;;;;;18.67;16.87;;;25.70;99.90;;;;;;4991603;28;20959;-75
2021/06/27 16:35:22;;;;;;;15.10;10.20;;;25.50;99.90;;;;;;4990517;28;20230;-75
2021/06/27 16:37:48;;;;;;;3.57;3.37;;;25.50;99.90;;;;;;4991406;28;20186;-75
2021/06/27 16:40:14;;;;;;;4.60;4.27;;;25.40;99.90;;;;;;4991820;28;20180;-75
2021/06/27 16:42:40;;;;;;;4.20;3.80;;;25.30;99.90;;;;;;4991225;28;20211;-75
2021/06/27 16:45:09;;;;;;;4.07;3.83;;;25.10;99.90;;;;;;4991429;28;20410;-75
2021/06/27 16:47:35;;;;;;;8.20;5.13;;;25.10;99.90;;;;;;4991569;28;20415;-75
2021/06/27 16:50:02;;;;;;;4.30;3.87;;;25.10;99.90;;;;;;4990917;28;20825;-75
2021/06/27 16:52:28;;;;;;;6.37;5.77;;;25.10;99.90;;;;;;4991408;28;20215;-76
2021/06/27 16:54:53;;;;;;;4.07;3.67;;;25.00;99.90;;;;;;4991574;28;20429;-76
2021/06/27 16:57:19;;;;;;;4.10;3.70;;;24.90;99.90;;;;;;4992167;28;20360;-75
2021/06/27 16:59:44;;;;;;;4.30;3.43;;;24.60;99.90;;;;;;4991700;28;20672;-75
2021/06/27 17:02:10;;;;;;;3.90;3.70;;;24.40;99.90;;;;;;4991470;28;20286;-75
2021/06/27 17:04:35;;;;;;;4.10;3.80;;;24.40;99.90;;;;;;4991063;28;20183;-75
2021/06/27 17:07:01;;;;;;;3.30;3.10;;;24.20;99.90;;;;;;4991397;28;20310;-76
2021/06/27 17:09:27;;;;;;;3.23;3.00;;;24.00;99.90;;;;;;4990685;28;20194;-75
2021/06/27 17:11:52;;;;;;;4.47;4.17;;;23.80;99.90;;;;;;4990999;28;20218;-75
2021/06/27 17:14:18;;;;;;;4.90;4.50;;;23.80;99.90;;;;;;4991166;28;20175;-75
2021/06/27 17:16:45;;;;;;;5.30;4.47;;;23.70;99.90;;;;;;4991346;28;20542;-75
2021/06/27 17:19:11;;;;;;;4.27;3.87;;;23.70;99.90;;;;;;4992805;28;20419;-75